Time;durP1;ratioP1;P1;durP2;ratioP2;P2;SDS_P1;SDS_P2;PMS_P1;PMS_P2;Temp;Humidity;BMP_temperature;BMP_pressure;BME280_temperature;BME280_humidity;BME280_pressure;Samples;Min_cycle;Max_cycle;Signal;HPM_P1;HPM_P2
2023/07/06 00:00:31;;;;;;;0.73;0.20;;;;;;;12.08;100.00;100781.13;5031333;28;20032;-54
2023/07/06 00:02:56;;;;;;;0.55;0.20;;;;;;;12.02;100.00;100781.06;5038698;28;20036;-50
2023/07/06 00:05:22;;;;;;;0.32;0.13;;;;;;;12.03;100.00;100777.38;5031838;28;20032;-53
2023/07/06 00:07:48;;;;;;;1.92;0.10;;;;;;;11.94;100.00;100785.50;5035459;28;20120;-54
2023/07/06 00:10:13;;;;;;;0.20;0.10;;;;;;;11.96;100.00;100786.13;5034080;28;20044;-51
2023/07/06 00:12:38;;;;;;;1.33;0.75;;;;;;;11.89;100.00;100787.09;5037905;28;20032;-55
2023/07/06 00:15:04;;;;;;;1.27;0.60;;;;;;;11.93;100.00;100793.69;5029991;28;20108;-54
2023/07/06 00:17:30;;;;;;;1.75;0.03;;;;;;;11.92;100.00;100787.50;5033135;28;20113;-54
2023/07/06 00:19:55;;;;;;;1.20;0.10;;;;;;;11.85;100.00;100786.63;5033302;28;20049;-54
2023/07/06 00:22:20;;;;;;;2.35;0.10;;;;;;;11.80;100.00;100794.34;5029925;28;20040;-55
2023/07/06 00:24:46;;;;;;;0.95;0.35;;;;;;;11.76;100.00;100788.59;5030905;28;20549;-56
2023/07/06 00:27:15;;;;;;;0.10;0.10;;;;;;;11.70;100.00;100791.19;5036050;28;20610;-57
2023/07/06 00:29:56;;;;;;;2.03;0.88;;;;;;;11.63;100.00;100791.13;5034719;28;20063;-54
2023/07/06 00:32:28;;;;;;;0.93;0.43;;;;;;;11.56;100.00;100791.09;5032012;28;20048;-57
2023/07/06 00:34:56;;;;;;;0.40;0.00;;;;;;;11.48;100.00;100795.66;5032770;28;20908;-53
2023/07/06 00:37:22;;;;;;;0.63;0.00;;;;;;;11.44;100.00;100795.25;5036327;28;20083;-53
2023/07/06 00:39:51;;;;;;;3.78;0.10;;;;;;;11.37;100.00;100799.66;5036768;28;20064;-52
2023/07/06 00:42:18;;;;;;;0.00;0.00;;;;;;;11.32;100.00;100800.22;5039958;28;20032;-54
2023/07/06 00:44:47;;;;;;;0.65;0.30;;;;;;;11.34;100.00;100800.03;5025860;28;20029;-54
2023/07/06 00:47:13;;;;;;;0.30;0.00;;;;;;;11.33;100.00;100798.38;5027897;28;20037;-56
2023/07/06 00:49:40;;;;;;;1.10;0.10;;;;;;;11.27;100.00;100802.59;5031657;28;20607;-56
2023/07/06 00:52:07;;;;;;;0.10;0.00;;;;;;;11.24;100.00;100805.63;5028057;28;20049;-57
2023/07/06 00:54:37;;;;;;;1.30;0.17;;;;;;;11.22;100.00;100802.34;5031125;28;20390;-56
2023/07/06 00:57:03;;;;;;;1.30;0.98;;;;;;;11.24;100.00;100804.81;5035588;28;20033;-54
2023/07/06 00:59:30;;;;;;;1.85;0.10;;;;;;;11.20;100.00;100808.84;5030016;28;20025;-55
2023/07/06 01:01:59;;;;;;;0.52;0.20;;;;;;;11.07;100.00;100801.56;5034064;28;20144;-52
2023/07/06 01:04:26;;;;;;;0.08;0.08;;;;;;;11.05;100.00;100803.59;5033494;28;20417;-56
2023/07/06 01:06:54;;;;;;;1.50;0.40;;;;;;;11.02;100.00;100804.78;5034877;28;20102;-57
2023/07/06 01:09:21;;;;;;;1.33;0.17;;;;;;;11.00;100.00;100813.94;5027772;28;20044;-56
2023/07/06 01:11:47;;;;;;;1.70;0.50;;;;;;;10.92;100.00;100806.91;5031768;28;20065;-55
2023/07/06 01:14:14;;;;;;;4.07;0.10;;;;;;;10.83;100.00;100818.63;5030226;28;20051;-57
2023/07/06 01:16:45;;;;;;;3.95;1.02;;;;;;;10.84;100.00;100822.91;5031953;28;20107;-50
2023/07/06 01:19:29;;;;;;;1.00;0.38;;;;;;;10.85;100.00;100816.59;5031040;28;20029;-55
2023/07/06 01:22:27;;;;;;;0.43;0.10;;;;;;;10.85;100.00;100806.00;5035774;28;20033;-54
2023/07/06 01:25:05;;;;;;;0.82;0.38;;;;;;;10.75;100.00;100810.75;5033058;28;20068;-53
2023/07/06 01:27:49;;;;;;;1.70;0.00;;;;;;;10.72;100.00;100811.94;5035899;28;20084;-54
2023/07/06 01:30:14;;;;;;;1.48;0.00;;;;;;;10.62;100.00;100812.22;5029065;28;20041;-53
2023/07/06 01:32:47;;;;;;;1.17;0.32;;;;;;;10.60;100.00;100808.09;5036688;28;20039;-52
2023/07/06 01:35:27;;;;;;;1.75;0.35;;;;;;;10.57;100.00;100811.94;5031352;28;20133;-53
2023/07/06 01:37:53;;;;;;;1.30;0.17;;;;;;;10.53;100.00;100802.69;5033752;28;20029;-56
2023/07/06 01:40:19;;;;;;;2.10;0.20;;;;;;;10.48;100.00;100810.41;5031948;28;20380;-52
2023/07/06 01:42:44;;;;;;;0.05;0.05;;;;;;;10.45;100.00;100808.09;5037919;28;20462;-57
2023/07/06 01:45:16;;;;;;;0.70;0.50;;;;;;;10.29;100.00;100809.09;5029862;28;20045;-58
2023/07/06 01:47:45;;;;;;;0.82;0.65;;;;;;;10.21;100.00;100815.25;5030047;28;20366;-54
2023/07/06 01:50:13;;;;;;;0.50;0.35;;;;;;;10.18;100.00;100815.63;5027092;28;20057;-53
2023/07/06 01:52:56;;;;;;;0.82;0.63;;;;;;;10.15;100.00;100812.53;5035251;28;20024;-50
2023/07/06 01:55:25;;;;;;;0.40;0.40;;;;;;;10.11;100.00;100809.41;5035077;28;20029;-53
2023/07/06 01:58:01;;;;;;;0.00;0.00;;;;;;;10.10;100.00;100813.06;5027601;28;20044;-55
2023/07/06 02:00:29;;;;;;;0.55;0.10;;;;;;;10.08;100.00;100809.75;5035841;28;20095;-56
2023/07/06 02:02:55;;;;;;;0.93;0.88;;;;;;;10.08;100.00;100809.75;5038753;28;20808;-55
2023/07/06 02:05:22;;;;;;;1.00;0.00;;;;;;;10.06;100.00;100803.81;5029073;28;20044;-53
2023/07/06 02:07:49;;;;;;;0.30;0.00;;;;;;;10.08;100.00;100804.47;5033808;28;20029;-55
2023/07/06 02:10:17;;;;;;;0.28;0.10;;;;;;;10.00;100.00;100810.66;5028907;28;20025;-57
2023/07/06 02:12:43;;;;;;;0.50;0.10;;;;;;;9.91;100.00;100809.06;5040366;28;20174;-54
2023/07/06 02:15:10;;;;;;;0.00;0.00;;;;;;;9.87;100.00;100799.03;5025550;28;20049;-55
2023/07/06 02:17:36;;;;;;;0.00;0.00;;;;;;;9.82;100.00;100796.91;5033549;28;20467;-57
2023/07/06 02:20:01;;;;;;;0.80;0.10;;;;;;;9.76;100.00;100805.56;5033700;28;20033;-56
2023/07/06 02:22:28;;;;;;;0.60;0.45;;;;;;;9.70;100.00;100795.69;5031270;28;20151;-55
2023/07/06 02:24:53;;;;;;;0.10;0.00;;;;;;;9.64;100.00;100799.84;5034708;28;20534;-52
2023/07/06 02:27:19;;;;;;;0.93;0.08;;;;;;;9.66;100.00;100800.50;5029479;28;21274;-52
2023/07/06 02:29:45;;;;;;;0.08;0.08;;;;;;;9.61;100.00;100802.88;5026570;28;20661;-55
2023/07/06 02:32:12;;;;;;;1.58;0.10;;;;;;;9.53;100.00;100805.56;5031520;28;20399;-53
2023/07/06 02:34:37;;;;;;;0.85;0.13;;;;;;;9.52;100.00;100799.44;5035708;28;20028;-56
2023/07/06 02:37:03;;;;;;;0.55;0.08;;;;;;;9.49;100.00;100801.63;5027116;28;20360;-53
2023/07/06 02:39:29;;;;;;;0.22;0.00;;;;;;;9.42;100.00;100798.03;5025091;28;20029;-52
2023/07/06 02:41:56;;;;;;;0.20;0.00;;;;;;;9.33;100.00;100794.63;5028227;28;20025;-52
2023/07/06 02:44:22;;;;;;;0.30;0.00;;;;;;;9.30;100.00;100793.16;5030315;28;20116;-53
2023/07/06 02:46:48;;;;;;;0.70;0.70;;;;;;;9.34;100.00;100797.06;5038863;28;20482;-50
2023/07/06 02:49:14;;;;;;;2.17;0.32;;;;;;;9.39;100.00;100805.31;5030752;28;20082;-54
2023/07/06 02:51:42;;;;;;;0.17;0.17;;;;;;;9.37;100.00;100795.91;5030594;28;20037;-54
2023/07/06 02:54:10;;;;;;;1.42;0.65;;;;;;;9.30;100.00;100793.16;5033697;28;20034;-53
2023/07/06 02:56:35;;;;;;;0.95;0.10;;;;;;;9.18;100.00;100802.47;5032025;28;20620;-57
2023/07/06 02:59:00;;;;;;;0.52;0.00;;;;;;;9.12;100.00;100798.69;5032221;28;20183;-53
2023/07/06 03:01:26;;;;;;;0.40;0.05;;;;;;;9.08;100.00;100796.56;5036174;28;20049;-51
2023/07/06 03:03:51;;;;;;;0.77;0.00;;;;;;;9.15;100.00;100802.81;5032839;28;20037;-53
2023/07/06 03:06:18;;;;;;;3.30;0.10;;;;;;;9.10;100.00;100810.44;5035613;28;20034;-54
2023/07/06 03:08:44;;;;;;;0.65;0.10;;;;;;;9.05;100.00;100810.16;5022422;28;20468;-51
2023/07/06 03:11:10;;;;;;;0.10;0.10;;;;;;;9.06;100.00;100806.50;5043654;28;20029;-55
2023/07/06 03:13:36;;;;;;;2.53;0.25;;;;;;;9.03;100.00;100804.19;5032660;28;20040;-53
2023/07/06 03:16:03;;;;;;;0.10;0.00;;;;;;;8.96;100.00;100809.38;5027144;28;20029;-53
2023/07/06 03:18:28;;;;;;;0.50;0.00;;;;;;;8.89;100.00;100806.56;5032289;28;20041;-54
2023/07/06 03:20:54;;;;;;;0.00;0.00;;;;;;;8.84;100.00;100800.97;5037398;28;20040;-57
2023/07/06 03:23:21;;;;;;;0.43;0.10;;;;;;;8.83;100.00;100817.00;5032969;28;20048;-57
2023/07/06 03:25:52;;;;;;;0.55;0.00;;;;;;;8.78;100.00;100808.75;5034041;28;20120;-52
2023/07/06 03:28:19;;;;;;;0.08;0.00;;;;;;;8.72;100.00;100813.75;5031323;28;20049;-55
2023/07/06 03:30:44;;;;;;;2.60;0.63;;;;;;;8.71;100.00;100816.56;5029555;28;20044;-53
2023/07/06 03:33:10;;;;;;;0.00;0.00;;;;;;;8.74;100.00;100824.16;5035190;28;20025;-53
2023/07/06 03:35:39;;;;;;;0.73;0.20;;;;;;;8.70;100.00;100828.16;5028486;28;20453;-52
2023/07/06 03:38:05;;;;;;;0.08;0.08;;;;;;;8.67;100.00;100826.66;5034109;28;20055;-52
2023/07/06 03:40:31;;;;;;;0.15;0.15;;;;;;;8.71;100.00;100821.84;5027529;28;20095;-54
2023/07/06 03:42:58;;;;;;;0.57;0.20;;;;;;;8.68;100.00;100827.50;5034527;28;20033;-53
2023/07/06 03:45:23;;;;;;;4.03;0.30;;;;;;;8.64;100.00;100826.16;5026930;28;20152;-52
2023/07/06 03:47:50;;;;;;;0.73;0.08;;;;;;;8.60;100.00;100819.59;5029160;28;20132;-51
2023/07/06 03:50:17;;;;;;;0.38;0.10;;;;;;;8.54;100.00;100823.72;5029524;28;20487;-51
2023/07/06 03:52:44;;;;;;;0.03;0.00;;;;;;;8.51;100.00;100830.16;5036573;28;20112;-52
2023/07/06 03:55:22;;;;;;;0.30;0.13;;;;;;;8.52;100.00;100821.25;5037067;28;20397;-54
2023/07/06 03:57:49;;;;;;;1.25;0.00;;;;;;;8.52;100.00;100818.59;5029692;28;20053;-51
2023/07/06 04:00:24;;;;;;;0.57;0.25;;;;;;;8.50;100.00;100823.22;5032601;28;20481;-56
2023/07/06 04:02:52;;;;;;;0.00;0.00;;;;;;;8.41;100.00;100820.78;5035183;28;20048;-55
2023/07/06 04:05:24;;;;;;;0.30;0.00;;;;;;;8.41;100.00;100813.66;5023440;28;20618;-55
2023/07/06 04:07:52;;;;;;;2.28;0.22;;;;;;;8.36;100.00;100828.34;5033802;28;20119;-53
2023/07/06 04:10:20;;;;;;;5.82;0.13;;;;;;;8.35;100.00;100822.25;5025531;28;20163;-50
2023/07/06 04:12:45;;;;;;;0.20;0.20;;;;;;;8.40;100.00;100827.88;5039328;28;20032;-52
2023/07/06 04:15:11;;;;;;;0.15;0.00;;;;;;;8.43;100.00;100830.19;5035937;28;20029;-52
2023/07/06 04:17:36;;;;;;;2.20;1.10;;;;;;;8.48;100.00;100835.78;5038456;28;20033;-56
2023/07/06 04:20:04;;;;;;;0.52;0.05;;;;;;;8.51;100.00;100831.97;5041731;28;20029;-54
2023/07/06 04:22:29;;;;;;;0.20;0.20;;;;;;;8.50;100.00;100823.22;5035554;28;20546;-51
2023/07/06 04:24:54;;;;;;;0.88;0.10;;;;;;;8.62;100.00;100839.56;5038842;28;20182;-55
2023/07/06 04:27:20;;;;;;;0.20;0.00;;;;;;;8.61;100.00;100831.81;5040864;28;20024;-57
2023/07/06 04:29:45;;;;;;;1.33;0.52;;;;;;;8.62;100.00;100828.16;5037245;28;20034;-53
2023/07/06 04:32:10;;;;;;;1.75;0.90;;;;;;;8.68;100.00;100832.78;5035990;28;20029;-56
2023/07/06 04:34:39;;;;;;;0.28;0.10;;;;;;;8.74;100.00;100834.72;5040688;28;20139;-55
2023/07/06 04:37:05;;;;;;;9.65;0.35;;;;;;;8.83;100.00;100832.88;5036459;28;20112;-54
2023/07/06 04:39:30;;;;;;;0.60;0.00;;;;;;;8.97;100.00;100831.34;5042543;28;20039;-54
2023/07/06 04:41:56;;;;;;;0.35;0.17;;;;;;;9.12;100.00;100830.44;5031747;28;20383;-53
2023/07/06 04:44:21;;;;;;;0.00;0.00;;;;;;;9.11;100.00;100835.91;5041510;28;20044;-56
2023/07/06 04:46:47;;;;;;;0.00;0.00;;;;;;;9.18;100.00;100829.75;5037380;28;20032;-56
2023/07/06 04:49:12;;;;;;;0.10;0.00;;;;;;;9.33;100.00;100848.34;5034188;28;20084;-52
2023/07/06 04:51:38;;;;;;;0.30;0.30;;;;;;;9.54;100.00;100838.97;5031550;28;20521;-60
2023/07/06 04:54:03;;;;;;;0.88;0.13;;;;;;;9.65;100.00;100835.09;5035267;28;20053;-57
2023/07/06 04:56:29;;;;;;;0.20;0.20;;;;;;;9.72;100.00;100838.69;5034010;28;20043;-58
2023/07/06 04:58:56;;;;;;;1.92;0.10;;;;;;;9.82;100.00;100839.28;5035709;28;20025;-59
2023/07/06 05:01:23;;;;;;;1.65;0.20;;;;;;;9.95;100.00;100842.16;5032740;28;20044;-58
2023/07/06 05:03:50;;;;;;;1.35;0.30;;;;;;;9.95;100.00;100839.50;5041605;28;20131;-56
2023/07/06 05:06:15;;;;;;;0.20;0.20;;;;;;;10.08;100.00;100840.75;5030237;28;20525;-57
2023/07/06 05:08:43;;;;;;;2.47;0.30;;;;;;;10.18;100.00;100838.66;5040297;28;20430;-56
2023/07/06 05:11:09;;;;;;;0.22;0.22;;;;;;;10.29;100.00;100842.72;5027756;28;20083;-57
2023/07/06 05:13:34;;;;;;;0.65;0.00;;;;;;;10.36;100.00;100843.66;5028563;28;20033;-60
2023/07/06 05:16:00;;;;;;;22.02;0.73;;;;;;;10.46;100.00;100838.91;5031768;28;20482;-57
2023/07/06 05:18:25;;;;;;;2.10;0.10;;;;;;;10.66;100.00;100842.69;5037853;28;20040;-59
2023/07/06 05:20:56;;;;;;;1.65;0.17;;;;;;;10.82;100.00;100846.16;5037427;28;20029;-57
2023/07/06 05:23:25;;;;;;;0.10;0.00;;;;;;;10.94;100.00;100847.31;5034503;28;20025;-58
2023/07/06 05:26:02;;;;;;;2.10;0.95;;;;;;;11.00;100.00;100843.94;5036890;28;20037;-59
2023/07/06 05:28:29;;;;;;;2.08;0.17;;;;;;;11.11;100.00;100840.81;5035901;28;20533;-55
2023/07/06 05:30:54;;;;;;;1.30;0.10;;;;;;;11.22;100.00;100844.00;5034603;28;20394;-58
2023/07/06 05:33:20;;;;;;;1.33;1.15;;;;;;;11.31;100.00;100848.19;5035019;28;20029;-57
2023/07/06 05:35:47;;;;;;;1.00;0.43;;;;;;;11.43;100.00;100846.69;5034309;28;20087;-57
2023/07/06 05:38:12;;;;;;;0.57;0.10;;;;;;;11.54;100.00;100851.53;5032001;28;20029;-60
2023/07/06 05:40:39;;;;;;;1.30;0.10;;;;;;;11.69;100.00;100846.13;5038284;28;20036;-58
2023/07/06 05:43:05;;;;;;;0.93;0.63;;;;;;;11.84;100.00;100848.72;5040736;28;20059;-58
2023/07/06 05:45:30;;;;;;;0.40;0.10;;;;;;;12.04;100.00;100856.09;5029272;28;20483;-55
2023/07/06 05:47:55;;;;;;;9.20;0.38;;;;;;;12.13;100.00;100849.63;5039544;28;20103;-58
2023/07/06 05:50:21;;;;;;;0.73;0.10;;;;;;;12.25;100.00;100857.91;5039041;28;20510;-58
2023/07/06 05:52:46;;;;;;;0.10;0.10;;;;;;;12.29;100.00;100856.50;5039300;28;20087;-59
2023/07/06 05:55:12;;;;;;;0.40;0.05;;;;;;;12.48;100.00;100855.00;5028200;28;20557;-63
2023/07/06 05:57:37;;;;;;;1.05;0.30;;;;;;;12.63;100.00;100850.41;5039274;28;20025;-61
2023/07/06 06:00:09;;;;;;;0.45;0.10;;;;;;;12.84;100.00;100845.00;5026554;28;20035;-62
2023/07/06 06:02:36;;;;;;;0.10;0.10;;;;;;;12.99;100.00;100852.03;5031289;28;20063;-63
2023/07/06 06:05:01;;;;;;;1.75;0.45;;;;;;;13.11;100.00;100850.44;5038371;28;20084;-60
2023/07/06 06:07:27;;;;;;;2.92;0.40;;;;;;;13.34;100.00;100855.47;5033767;28;20520;-60
2023/07/06 06:09:52;;;;;;;3.92;1.45;;;;;;;13.56;100.00;100853.50;5042293;28;20406;-63
2023/07/06 06:12:18;;;;;;;1.65;0.45;;;;;;;13.68;100.00;100846.56;5031978;28;20036;-63
2023/07/06 06:14:48;;;;;;;2.20;0.50;;;;;;;13.67;100.00;100852.06;5034287;28;20035;-64
2023/07/06 06:17:15;;;;;;;2.30;0.10;;;;;;;13.69;100.00;100858.03;5033915;28;20029;-62
2023/07/06 06:19:42;;;;;;;3.33;0.20;;;;;;;13.72;100.00;100858.44;5031573;28;20034;-63
2023/07/06 06:22:11;;;;;;;2.17;0.20;;;;;;;13.83;100.00;100861.53;5032274;28;20056;-63
2023/07/06 06:24:36;;;;;;;2.90;0.40;;;;;;;13.91;100.00;100859.50;5031726;28;20474;-64
2023/07/06 06:27:02;;;;;;;4.85;0.40;;;;;;;14.07;100.00;100863.63;5026490;28;20021;-64
2023/07/06 06:29:27;;;;;;;1.80;0.35;;;;;;;14.21;100.00;100869.75;5036501;28;20029;-64
2023/07/06 06:31:53;;;;;;;3.33;1.38;;;;;;;14.40;100.00;100868.09;5030761;28;20102;-64
2023/07/06 06:34:19;;;;;;;2.53;0.47;;;;;;;14.40;100.00;100865.44;5029162;28;20044;-64
2023/07/06 06:36:44;;;;;;;5.35;0.20;;;;;;;14.53;100.00;100869.97;5030216;28;20021;-64
2023/07/06 06:39:10;;;;;;;0.75;0.68;;;;;;;14.71;100.00;100874.66;5033362;28;20064;-64
2023/07/06 06:41:38;;;;;;;4.68;0.30;;;;;;;14.87;100.00;100876.91;5036311;28;20021;-63
2023/07/06 06:44:04;;;;;;;0.82;0.22;;;;;;;15.01;100.00;100888.34;5036326;28;20033;-64
2023/07/06 06:46:30;;;;;;;0.85;0.20;;;;;;;15.17;100.00;100876.38;5028507;28;20025;-64
2023/07/06 06:48:55;;;;;;;5.82;0.63;;;;;;;15.27;100.00;100874.06;5031339;28;20580;-64
2023/07/06 06:51:21;;;;;;;1.65;0.52;;;;;;;15.37;100.00;100871.75;5022910;28;20089;-64
2023/07/06 06:53:46;;;;;;;4.30;1.50;;;;;;;15.46;100.00;100873.19;5028573;28;20109;-65
2023/07/06 06:56:12;;;;;;;3.03;0.40;;;;;;;15.60;100.00;100873.09;5029647;28;20088;-64
2023/07/06 06:58:38;;;;;;;0.15;0.13;;;;;;;15.76;100.00;100880.63;5026500;28;20025;-65
2023/07/06 07:01:06;;;;;;;4.57;0.57;;;;;;;15.88;100.00;100878.09;5021457;28;20107;-65
2023/07/06 07:03:34;;;;;;;3.10;0.20;;;;;;;15.82;100.00;100861.03;5032617;28;20032;-59
2023/07/06 07:06:13;;;;;;;3.65;0.25;;;;;;;15.75;100.00;100856.78;5034643;28;20029;-66
2023/07/06 07:08:43;;;;;;;0.32;0.20;;;;;;;16.00;100.00;100876.34;5024418;28;20041;-66
2023/07/06 07:11:10;;;;;;;3.25;0.43;;;;;;;16.14;100.00;100869.88;5028352;28;20041;-65
2023/07/06 07:13:37;;;;;;;2.63;0.40;;;;;;;16.19;100.00;100865.72;5035921;28;20044;-61
2023/07/06 07:16:04;;;;;;;4.22;0.47;;;;;;;16.30;100.00;100865.00;5034368;28;20117;-62
2023/07/06 07:18:30;;;;;;;3.35;0.30;;;;;;;16.37;100.00;100863.09;5040098;28;20039;-63
2023/07/06 07:20:56;;;;;;;5.13;0.50;;;;;;;16.50;100.00;100868.31;5034559;28;20389;-63
2023/07/06 07:23:23;;;;;;;0.30;0.17;;;;;;;16.57;100.00;100876.25;5029580;28;21579;-60
2023/07/06 07:25:49;;;;;;;1.67;0.52;;;;;;;16.60;100.00;100870.50;5031649;28;20031;-63
2023/07/06 07:28:17;;;;;;;3.00;0.40;;;;;;;16.74;100.00;100873.84;5037391;28;20025;-63
2023/07/06 07:30:54;;;;;;;3.97;0.50;;;;;;;16.77;100.00;100870.72;5027361;28;20143;-63
2023/07/06 07:33:19;;;;;;;1.67;0.75;;;;;;;16.91;100.00;100860.69;5038675;28;20371;-63
2023/07/06 07:35:45;;;;;;;1.45;0.52;;;;;;;16.95;100.00;100857.34;5024005;28;20029;-63
2023/07/06 07:38:10;;;;;;;1.67;0.95;;;;;;;17.03;100.00;100866.13;5028012;28;20032;-62
2023/07/06 07:40:36;;;;;;;0.57;0.57;;;;;;;17.06;100.00;100863.81;5023554;28;20041;-64
2023/07/06 07:43:01;;;;;;;2.90;0.55;;;;;;;17.20;100.00;100865.31;5026983;28;20079;-62
2023/07/06 07:45:27;;;;;;;2.50;0.40;;;;;;;17.34;100.00;100860.59;5030122;28;20122;-48
2023/07/06 07:47:52;;;;;;;2.85;0.73;;;;;;;17.34;100.00;100860.59;5029983;28;20112;-58
2023/07/06 07:50:17;;;;;;;5.10;0.70;;;;;;;17.49;100.00;100868.22;5033574;28;20037;-54
2023/07/06 07:52:43;;;;;;;1.73;0.30;;;;;;;17.44;100.00;100855.50;5039694;28;20083;-54
2023/07/06 07:55:09;;;;;;;1.90;0.38;;;;;;;17.54;100.00;100860.31;5038248;28;20381;-54
2023/07/06 07:57:37;;;;;;;2.70;1.20;;;;;;;17.73;100.00;100862.94;5034504;28;20040;-54
2023/07/06 08:00:06;;;;;;;2.05;0.73;;;;;;;17.70;100.00;100850.81;5038678;28;20033;-58
2023/07/06 08:02:32;;;;;;;4.50;0.65;;;;;;;17.70;100.00;100853.50;5029831;28;20077;-54
2023/07/06 08:05:01;;;;;;;5.00;0.52;;;;;;;17.75;100.00;100853.63;5027577;28;20442;-52
2023/07/06 08:07:27;;;;;;;2.15;0.30;;;;;;;17.77;100.00;100848.84;5031720;28;20430;-55
2023/07/06 08:09:52;;;;;;;5.47;1.15;;;;;;;17.93;100.00;100852.75;5043957;28;20039;-53
2023/07/06 08:12:20;;;;;;;3.22;0.08;;;;;;;18.19;100.00;100859.56;5033964;28;20047;-55
2023/07/06 08:14:45;;;;;;;2.15;1.55;;;;;;;18.36;100.00;100862.38;5027855;28;20065;-57
2023/07/06 08:17:12;;;;;;;2.70;0.22;;;;;;;18.38;100.00;100846.88;5033226;28;20128;-55
2023/07/06 08:19:37;;;;;;;8.98;1.67;;;;;;;18.48;100.00;100849.78;5037766;28;20052;-48
2023/07/06 08:22:03;;;;;;;4.00;0.55;;;;;;;18.60;100.00;100849.75;5031634;28;20033;-55
2023/07/06 08:24:29;;;;;;;2.80;0.20;;;;;;;18.86;100.00;100851.16;5028681;28;20238;-54
2023/07/06 08:26:54;;;;;;;1.25;0.43;;;;;;;19.15;100.00;100849.34;5033242;28;20040;-52
2023/07/06 08:29:19;;;;;;;3.47;0.70;;;;;;;19.23;100.00;100842.75;5034905;28;20057;-57
2023/07/06 08:31:45;;;;;;;0.40;0.10;;;;;;;19.44;100.00;100845.81;5029799;28;20033;-57
2023/07/06 08:34:12;;;;;;;2.42;0.10;;;;;;;19.36;100.00;100849.69;5036021;28;20528;-55
2023/07/06 08:36:37;;;;;;;3.88;0.43;;;;;;;19.38;100.00;100843.03;5028436;28;20052;-56
2023/07/06 08:39:05;;;;;;;0.98;0.40;;;;;;;19.49;100.00;100843.22;5029350;28;20046;-49
2023/07/06 08:41:37;;;;;;;4.10;0.77;;;;;;;19.65;100.00;100838.94;5034134;28;20034;-49
2023/07/06 08:44:05;;;;;;;2.97;0.75;;;;;;;19.79;100.00;100842.97;5038579;28;20116;-49
2023/07/06 08:46:34;;;;;;;3.20;0.57;;;;;;;19.86;100.00;100832.06;5027049;28;20456;-56
2023/07/06 08:49:00;;;;;;;4.93;0.47;;;;;;;20.00;100.00;100838.75;5037546;28;20036;-57
2023/07/06 08:51:35;;;;;;;2.95;0.55;;;;;;;19.85;100.00;100833.09;5027662;28;20749;-50
2023/07/06 08:54:07;;;;;;;1.75;0.57;;;;;;;19.94;100.00;100839.72;5034762;28;20021;-52
2023/07/06 08:56:36;;;;;;;9.85;0.45;;;;;;;19.87;100.00;100837.19;5039324;28;20028;-54
2023/07/06 08:59:08;;;;;;;3.47;0.10;;;;;;;19.91;100.00;100829.47;5034794;28;20025;-51
2023/07/06 09:01:36;;;;;;;8.52;1.15;;;;;;;19.91;100.00;100846.41;5025853;28;20398;-59
2023/07/06 09:04:19;;;;;;;1.33;0.10;;;;;;;19.72;100.00;100837.78;5034820;28;20033;-61
2023/07/06 09:06:50;;;;;;;3.03;0.30;;;;;;;19.67;100.00;100837.69;5035498;28;20033;-60
2023/07/06 09:09:16;;;;;;;2.72;0.30;;;;;;;19.98;100.00;100841.69;5027188;28;20112;-57
2023/07/06 09:11:43;;;;;;;6.40;1.33;;;;;;;20.10;100.00;100830.00;5037618;28;20116;-59
2023/07/06 09:14:13;;;;;;;0.90;0.43;;;;;;;20.35;100.00;100835.78;5030396;28;20034;-51
2023/07/06 09:16:55;;;;;;;0.68;0.13;;;;;;;20.61;100.00;100836.16;5026758;28;20045;-63
2023/07/06 09:19:22;;;;;;;9.07;0.85;;;;;;;20.87;100.00;100826.53;5030545;28;20420;-61
2023/07/06 09:21:53;;;;;;;0.65;0.10;;;;;;;21.25;100.00;100832.91;5038208;28;20033;-57
2023/07/06 09:24:19;;;;;;;3.35;0.38;;;;;;;21.19;100.00;100831.19;5031825;28;20041;-56
2023/07/06 09:26:46;;;;;;;2.60;0.17;;;;;;;21.32;100.00;100833.50;5036587;28;20440;-56
2023/07/06 09:29:30;;;;;;;0.80;0.28;;;;;;;21.43;100.00;100831.78;5032180;28;20041;-55
2023/07/06 09:32:19;;;;;;;6.35;0.20;;;;;;;21.59;100.00;100835.44;5036257;28;20065;-61
2023/07/06 09:34:50;;;;;;;2.58;0.95;;;;;;;21.77;100.00;100829.66;5035874;28;20178;-50
2023/07/06 09:37:17;;;;;;;0.70;0.28;;;;;;;22.05;100.00;100825.03;5028075;28;20044;-64
2023/07/06 09:39:57;;;;;;;0.38;0.17;;;;;;;22.15;100.00;100825.91;5032050;28;20033;-51
2023/07/06 09:42:23;;;;;;;2.65;0.47;;;;;;;22.30;100.00;100832.50;5035264;28;20033;-60
2023/07/06 09:44:50;;;;;;;1.33;0.47;;;;;;;22.38;100.00;100823.91;5028270;28;20044;-56
2023/07/06 09:47:16;;;;;;;1.50;0.10;;;;;;;22.55;100.00;100839.94;5035927;28;20037;-54
2023/07/06 09:49:52;;;;;;;0.10;0.10;;;;;;;22.67;100.00;100827.03;5026023;28;20040;-53
2023/07/06 09:52:19;;;;;;;3.47;0.43;;;;;;;22.97;100.00;100833.66;5033311;28;20066;-63
2023/07/06 09:55:16;;;;;;;0.98;0.30;;;;;;;23.19;100.00;100820.75;5025384;28;20033;-51
2023/07/06 09:57:42;;;;;;;3.60;0.10;;;;;;;22.75;100.00;100823.81;5032280;28;20104;-54
2023/07/06 10:00:17;;;;;;;0.75;0.00;;;;;;;22.73;100.00;100825.16;5028770;28;20532;-48
2023/07/06 10:02:56;;;;;;;0.98;0.20;;;;;;;23.17;100.00;100833.72;5039298;28;20588;-58
2023/07/06 10:05:41;;;;;;;0.73;0.20;;;;;;;23.37;93.52;100824.06;5031351;28;20041;-54
2023/07/06 10:08:11;;;;;;;1.00;0.40;;;;;;;23.16;93.94;100828.59;5026583;28;20034;-55
2023/07/06 10:10:52;;;;;;;1.63;0.35;;;;;;;22.80;93.86;100829.25;5034720;28;20024;-63
2023/07/06 10:13:24;;;;;;;1.85;0.60;;;;;;;22.69;92.69;100824.06;5030023;28;20041;-57
2023/07/06 10:15:55;;;;;;;1.55;0.35;;;;;;;22.99;92.58;100823.41;5036951;28;20033;-53
2023/07/06 10:18:22;;;;;;;1.37;0.20;;;;;;;22.87;88.56;100818.19;5027174;28;20033;-48
2023/07/06 10:21:17;;;;;;;1.13;0.13;;;;;;;22.79;88.29;100824.91;5032200;28;20482;-53
2023/07/06 10:23:50;;;;;;;1.08;0.35;;;;;;;22.64;84.29;100820.28;5036635;28;20474;-56
2023/07/06 10:26:28;;;;;;;0.73;0.13;;;;;;;23.36;87.16;100814.28;5036346;28;20086;-53
2023/07/06 10:28:59;;;;;;;1.02;0.50;;;;;;;23.82;85.99;100812.47;5032421;28;20057;-57
2023/07/06 10:31:48;;;;;;;0.52;0.52;;;;;;;23.93;83.62;100808.69;5025870;28;20028;-52
2023/07/06 10:34:32;;;;;;;1.17;0.20;;;;;;;23.83;81.36;100821.41;5031320;28;20099;-64
2023/07/06 10:37:01;;;;;;;0.30;0.30;;;;;;;23.65;82.06;100818.13;5030219;28;20120;-57
2023/07/06 10:39:29;;;;;;;0.65;0.20;;;;;;;23.39;81.17;100821.88;5031085;28;20111;-53
2023/07/06 10:42:00;;;;;;;1.48;0.30;;;;;;;23.06;74.88;100822.06;5027815;28;20037;-53
2023/07/06 10:44:43;;;;;;;;;;;;;;;22.98;71.92;100808.28;5034145;28;20061;-63
2023/07/06 10:47:27;;;;;;;1.45;0.32;;;;;;;22.92;74.25;100823.59;5037542;28;19920;-53
2023/07/06 10:50:05;;;;;;;1.10;0.20;;;;;;;23.10;76.39;100835.06;5028122;28;20061;-55
2023/07/06 10:52:59;;;;;;;1.45;0.40;;;;;;;23.98;72.66;100821.38;5026995;28;20024;-53
2023/07/06 10:55:28;;;;;;;3.22;0.20;;;;;;;24.21;69.67;100816.47;5029661;28;20075;-55
2023/07/06 10:57:59;;;;;;;1.08;0.15;;;;;;;24.32;71.73;100812.69;5034500;28;20461;-52
2023/07/06 11:00:35;;;;;;;1.15;0.20;;;;;;;23.97;66.42;100813.53;5028625;28;20025;-59
2023/07/06 11:03:01;;;;;;;0.95;0.30;;;;;;;23.99;71.32;100801.34;5033942;28;20483;-56
2023/07/06 11:05:30;;;;;;;2.45;0.45;;;;;;;24.24;69.78;100796.97;5028097;28;20036;-51
2023/07/06 11:07:58;;;;;;;0.68;0.68;;;;;;;24.43;70.61;100808.03;5024572;28;20041;-63
2023/07/06 11:10:37;;;;;;;2.30;0.45;;;;;;;24.34;62.58;100802.34;5042838;28;20119;-65
2023/07/06 11:13:04;;;;;;;0.55;0.30;;;;;;;23.86;65.94;100802.72;5034245;28;20037;-57
2023/07/06 11:15:35;;;;;;;0.88;0.28;;;;;;;24.04;65.30;100809.47;5045526;28;20413;-54
2023/07/06 11:18:39;;;;;;;1.65;0.43;;;;;;;23.99;66.36;100809.47;5036801;28;20109;-54
2023/07/06 11:21:23;;;;;;;3.05;0.38;;;;;;;24.07;67.51;100806.22;5038459;28;20061;-50
2023/07/06 11:24:02;;;;;;;0.68;0.30;;;;;;;24.11;67.29;100820.84;5035000;28;20045;-60
2023/07/06 11:26:40;;;;;;;2.40;0.63;;;;;;;24.01;65.61;100815.44;5033251;28;20175;-57